Livingston, Illinois
Current Conditions -  °F | °C
As of 4:15 PM on Sunday 25 Jan 2015 (Local Time) from K3LF Reporting Station
Haze Haze  
Wind Chill: 23°   Ceiling: 500
Heat Index: 35°   Visibility: 5mi
Dew Point: 32°   Wind: 21mph
Humidity: 91%   Direction: 360°N
Pressure: 29.72"   Gusts: 29mph
Location:  38.97°N, 89.76°W
Report Text: K3LF 252215Z AUTO 36018G25KT 5SM BR OVC005 02/00 A2972 RMK AO2 T00150002
Loading
Personal Weather Stations






























Interactive Weather Map New forecast layout! Learn more

10-Day Weather Forecast

Advertisements
Track Severe Weather on mobile